sensor_id;sensor_type;location;lat;lon;timestamp;P1;durP1;ratioP1;P2;durP2;ratioP2
10617;SDS011;5356;43.526;26.534;2023-03-01T00:00:39;12.43;;;5.03;;
10617;SDS011;5356;43.526;26.534;2023-03-01T00:03:05;9.73;;;4.68;;
10617;SDS011;5356;43.526;26.534;2023-03-01T00:05:31;10.77;;;5.60;;
10617;SDS011;5356;43.526;26.534;2023-03-01T00:07:57;13.93;;;7.00;;
10617;SDS011;5356;43.526;26.534;2023-03-01T00:10:22;11.77;;;5.88;;
10617;SDS011;5356;43.526;26.534;2023-03-01T00:12:48;10.65;;;5.40;;
10617;SDS011;5356;43.526;26.534;2023-03-01T00:15:13;9.20;;;4.85;;
10617;SDS011;5356;43.526;26.534;2023-03-01T00:17:39;9.02;;;4.32;;
10617;SDS011;5356;43.526;26.534;2023-03-01T00:20:04;9.85;;;4.65;;
10617;SDS011;5356;43.526;26.534;2023-03-01T00:22:35;10.05;;;3.72;;
10617;SDS011;5356;43.526;26.534;2023-03-01T00:25:01;8.85;;;4.53;;
10617;SDS011;5356;43.526;26.534;2023-03-01T00:27:26;10.43;;;4.38;;
10617;SDS011;5356;43.526;26.534;2023-03-01T00:29:52;11.38;;;4.55;;
10617;SDS011;5356;43.526;26.534;2023-03-01T00:32:17;10.52;;;4.47;;
10617;SDS011;5356;43.526;26.534;2023-03-01T00:34:42;8.45;;;4.57;;
10617;SDS011;5356;43.526;26.534;2023-03-01T00:37:22;10.20;;;5.20;;
10617;SDS011;5356;43.526;26.534;2023-03-01T00:39:48;10.60;;;4.95;;
10617;SDS011;5356;43.526;26.534;2023-03-01T00:42:14;9.75;;;4.68;;
10617;SDS011;5356;43.526;26.534;2023-03-01T00:44:39;11.23;;;5.47;;
10617;SDS011;5356;43.526;26.534;2023-03-01T00:47:05;10.55;;;6.03;;
10617;SDS011;5356;43.526;26.534;2023-03-01T00:49:30;8.52;;;5.35;;
10617;SDS011;5356;43.526;26.534;2023-03-01T00:51:56;8.60;;;4.28;;
10617;SDS011;5356;43.526;26.534;2023-03-01T00:54:22;7.65;;;4.93;;
10617;SDS011;5356;43.526;26.534;2023-03-01T00:56:47;8.35;;;4.13;;
10617;SDS011;5356;43.526;26.534;2023-03-01T00:59:13;8.65;;;3.95;;
10617;SDS011;5356;43.526;26.534;2023-03-01T01:01:38;9.32;;;4.43;;
10617;SDS011;5356;43.526;26.534;2023-03-01T01:04:06;8.13;;;4.15;;
10617;SDS011;5356;43.526;26.534;2023-03-01T01:06:35;8.40;;;3.63;;
10617;SDS011;5356;43.526;26.534;2023-03-01T01:09:03;6.32;;;3.88;;
10617;SDS011;5356;43.526;26.534;2023-03-01T01:11:30;8.23;;;3.90;;
10617;SDS011;5356;43.526;26.534;2023-03-01T01:13:56;7.75;;;3.72;;
10617;SDS011;5356;43.526;26.534;2023-03-01T01:16:23;8.25;;;3.83;;
10617;SDS011;5356;43.526;26.534;2023-03-01T01:18:51;9.13;;;4.13;;
10617;SDS011;5356;43.526;26.534;2023-03-01T01:21:18;9.10;;;4.53;;
10617;SDS011;5356;43.526;26.534;2023-03-01T01:23:47;13.15;;;5.57;;
10617;SDS011;5356;43.526;26.534;2023-03-01T01:26:15;12.35;;;5.50;;
10617;SDS011;5356;43.526;26.534;2023-03-01T01:28:45;7.75;;;4.03;;
10617;SDS011;5356;43.526;26.534;2023-03-01T01:31:12;5.57;;;3.17;;
10617;SDS011;5356;43.526;26.534;2023-03-01T01:33:38;5.57;;;3.33;;
10617;SDS011;5356;43.526;26.534;2023-03-01T01:36:04;5.07;;;2.30;;
10617;SDS011;5356;43.526;26.534;2023-03-01T01:38:31;3.67;;;2.30;;
10617;SDS011;5356;43.526;26.534;2023-03-01T01:40:57;4.05;;;2.63;;
10617;SDS011;5356;43.526;26.534;2023-03-01T01:43:23;6.03;;;2.75;;
10617;SDS011;5356;43.526;26.534;2023-03-01T01:45:52;4.45;;;2.85;;
10617;SDS011;5356;43.526;26.534;2023-03-01T01:48:22;6.38;;;3.33;;
10617;SDS011;5356;43.526;26.534;2023-03-01T01:50:55;5.75;;;3.15;;
10617;SDS011;5356;43.526;26.534;2023-03-01T01:53:23;7.60;;;3.63;;
10617;SDS011;5356;43.526;26.534;2023-03-01T01:55:51;8.05;;;3.55;;
10617;SDS011;5356;43.526;26.534;2023-03-01T01:58:22;9.05;;;4.40;;
10617;SDS011;5356;43.526;26.534;2023-03-01T02:00:52;8.27;;;3.88;;
10617;SDS011;5356;43.526;26.534;2023-03-01T02:03:19;9.25;;;3.83;;
10617;SDS011;5356;43.526;26.534;2023-03-01T02:08:15;11.55;;;3.92;;
10617;SDS011;5356;43.526;26.534;2023-03-01T02:10:43;8.27;;;3.33;;
10617;SDS011;5356;43.526;26.534;2023-03-01T02:13:10;8.25;;;3.05;;
10617;SDS011;5356;43.526;26.534;2023-03-01T02:15:37;5.15;;;2.92;;
10617;SDS011;5356;43.526;26.534;2023-03-01T02:18:04;8.25;;;3.88;;
10617;SDS011;5356;43.526;26.534;2023-03-01T02:20:44;7.47;;;3.95;;
10617;SDS011;5356;43.526;26.534;2023-03-01T02:25:46;4.65;;;2.72;;
10617;SDS011;5356;43.526;26.534;2023-03-01T02:28:36;5.30;;;2.80;;
10617;SDS011;5356;43.526;26.534;2023-03-01T02:31:03;4.35;;;3.05;;
10617;SDS011;5356;43.526;26.534;2023-03-01T02:33:49;5.55;;;2.72;;
10617;SDS011;5356;43.526;26.534;2023-03-01T02:36:26;5.57;;;3.13;;
10617;SDS011;5356;43.526;26.534;2023-03-01T02:38:58;4.22;;;2.90;;
10617;SDS011;5356;43.526;26.534;2023-03-01T02:41:26;6.25;;;3.17;;
10617;SDS011;5356;43.526;26.534;2023-03-01T02:43:57;10.13;;;4.28;;
10617;SDS011;5356;43.526;26.534;2023-03-01T02:46:23;6.47;;;3.40;;
10617;SDS011;5356;43.526;26.534;2023-03-01T02:48:52;6.63;;;3.80;;
10617;SDS011;5356;43.526;26.534;2023-03-01T02:51:34;7.25;;;3.50;;
10617;SDS011;5356;43.526;26.534;2023-03-01T02:55:10;8.52;;;4.03;;
10617;SDS011;5356;43.526;26.534;2023-03-01T02:57:06;6.60;;;3.90;;
10617;SDS011;5356;43.526;26.534;2023-03-01T02:59:32;5.78;;;3.38;;
10617;SDS011;5356;43.526;26.534;2023-03-01T03:02:07;7.43;;;3.95;;
10617;SDS011;5356;43.526;26.534;2023-03-01T03:04:45;6.18;;;3.80;;
10617;SDS011;5356;43.526;26.534;2023-03-01T03:07:10;5.55;;;3.67;;
10617;SDS011;5356;43.526;26.534;2023-03-01T03:09:36;6.95;;;3.67;;
10617;SDS011;5356;43.526;26.534;2023-03-01T03:12:01;6.88;;;4.05;;
10617;SDS011;5356;43.526;26.534;2023-03-01T03:14:26;5.55;;;3.67;;
10617;SDS011;5356;43.526;26.534;2023-03-01T03:16:52;7.28;;;3.45;;
10617;SDS011;5356;43.526;26.534;2023-03-01T03:19:18;6.43;;;3.83;;
10617;SDS011;5356;43.526;26.534;2023-03-01T03:21:44;7.68;;;4.00;;
10617;SDS011;5356;43.526;26.534;2023-03-01T03:24:10;5.85;;;3.55;;
10617;SDS011;5356;43.526;26.534;2023-03-01T03:26:35;7.65;;;4.65;;
10617;SDS011;5356;43.526;26.534;2023-03-01T03:29:01;7.63;;;3.75;;
10617;SDS011;5356;43.526;26.534;2023-03-01T03:31:26;7.93;;;3.60;;
10617;SDS011;5356;43.526;26.534;2023-03-01T03:33:52;7.93;;;3.78;;
10617;SDS011;5356;43.526;26.534;2023-03-01T03:36:18;6.90;;;3.72;;
10617;SDS011;5356;43.526;26.534;2023-03-01T03:38:46;9.05;;;3.97;;
10617;SDS011;5356;43.526;26.534;2023-03-01T03:41:12;8.18;;;3.85;;
10617;SDS011;5356;43.526;26.534;2023-03-01T03:43:39;9.45;;;3.78;;
10617;SDS011;5356;43.526;26.534;2023-03-01T03:46:23;7.15;;;3.45;;
10617;SDS011;5356;43.526;26.534;2023-03-01T03:48:48;7.97;;;4.63;;
10617;SDS011;5356;43.526;26.534;2023-03-01T03:51:15;6.65;;;4.20;;
10617;SDS011;5356;43.526;26.534;2023-03-01T03:53:42;6.75;;;3.90;;
10617;SDS011;5356;43.526;26.534;2023-03-01T03:56:09;7.03;;;4.00;;
10617;SDS011;5356;43.526;26.534;2023-03-01T03:58:35;6.85;;;4.47;;
10617;SDS011;5356;43.526;26.534;2023-03-01T04:01:19;10.13;;;4.72;;
10617;SDS011;5356;43.526;26.534;2023-03-01T04:03:45;9.85;;;6.25;;
10617;SDS011;5356;43.526;26.534;2023-03-01T04:06:12;8.98;;;5.40;;
10617;SDS011;5356;43.526;26.534;2023-03-01T04:08:39;13.30;;;5.95;;
10617;SDS011;5356;43.526;26.534;2023-03-01T04:11:06;11.80;;;5.25;;
10617;SDS011;5356;43.526;26.534;2023-03-01T04:13:51;12.32;;;6.85;;
10617;SDS011;5356;43.526;26.534;2023-03-01T04:16:18;11.43;;;5.60;;
10617;SDS011;5356;43.526;26.534;2023-03-01T04:18:43;9.38;;;5.05;;
10617;SDS011;5356;43.526;26.534;2023-03-01T04:21:09;9.20;;;4.82;;
10617;SDS011;5356;43.526;26.534;2023-03-01T04:23:36;10.02;;;4.88;;
10617;SDS011;5356;43.526;26.534;2023-03-01T04:26:02;9.85;;;5.63;;
10617;SDS011;5356;43.526;26.534;2023-03-01T04:31:02;10.75;;;5.43;;
10617;SDS011;5356;43.526;26.534;2023-03-01T04:33:41;11.88;;;5.53;;
10617;SDS011;5356;43.526;26.534;2023-03-01T04:36:11;11.80;;;6.10;;
10617;SDS011;5356;43.526;26.534;2023-03-01T04:38:38;11.57;;;5.60;;
10617;SDS011;5356;43.526;26.534;2023-03-01T04:41:09;11.05;;;6.60;;
10617;SDS011;5356;43.526;26.534;2023-03-01T04:43:35;11.77;;;6.60;;
10617;SDS011;5356;43.526;26.534;2023-03-01T04:46:06;12.63;;;6.57;;
10617;SDS011;5356;43.526;26.534;2023-03-01T04:48:34;8.68;;;5.28;;
10617;SDS011;5356;43.526;26.534;2023-03-01T04:51:01;13.65;;;6.90;;
10617;SDS011;5356;43.526;26.534;2023-03-01T04:53:27;15.07;;;7.45;;
10617;SDS011;5356;43.526;26.534;2023-03-01T04:55:54;15.70;;;7.88;;
10617;SDS011;5356;43.526;26.534;2023-03-01T04:58:22;22.17;;;9.88;;
10617;SDS011;5356;43.526;26.534;2023-03-01T05:00:52;16.83;;;8.02;;
10617;SDS011;5356;43.526;26.534;2023-03-01T05:03:19;15.18;;;9.27;;
10617;SDS011;5356;43.526;26.534;2023-03-01T05:05:45;18.02;;;9.60;;
10617;SDS011;5356;43.526;26.534;2023-03-01T05:08:12;23.08;;;10.63;;
10617;SDS011;5356;43.526;26.534;2023-03-01T05:10:43;21.55;;;11.43;;
10617;SDS011;5356;43.526;26.534;2023-03-01T05:13:11;18.73;;;10.23;;
10617;SDS011;5356;43.526;26.534;2023-03-01T05:15:38;24.20;;;11.18;;
10617;SDS011;5356;43.526;26.534;2023-03-01T05:18:04;31.35;;;10.25;;
10617;SDS011;5356;43.526;26.534;2023-03-01T05:20:36;12.38;;;7.05;;
10617;SDS011;5356;43.526;26.534;2023-03-01T05:23:02;12.30;;;6.65;;
10617;SDS011;5356;43.526;26.534;2023-03-01T05:25:30;10.13;;;6.18;;
10617;SDS011;5356;43.526;26.534;2023-03-01T05:27:58;9.52;;;5.50;;
10617;SDS011;5356;43.526;26.534;2023-03-01T05:30:29;8.27;;;5.28;;
10617;SDS011;5356;43.526;26.534;2023-03-01T05:32:56;12.02;;;5.55;;
10617;SDS011;5356;43.526;26.534;2023-03-01T05:35:21;13.20;;;5.97;;
10617;SDS011;5356;43.526;26.534;2023-03-01T05:37:47;11.73;;;6.15;;
10617;SDS011;5356;43.526;26.534;2023-03-01T05:40:23;12.85;;;7.13;;
10617;SDS011;5356;43.526;26.534;2023-03-01T05:42:53;13.38;;;5.97;;
10617;SDS011;5356;43.526;26.534;2023-03-01T05:45:21;13.93;;;6.25;;
10617;SDS011;5356;43.526;26.534;2023-03-01T05:47:48;16.00;;;6.20;;
10617;SDS011;5356;43.526;26.534;2023-03-01T05:50:19;11.48;;;5.32;;
10617;SDS011;5356;43.526;26.534;2023-03-01T05:52:46;13.50;;;6.90;;
10617;SDS011;5356;43.526;26.534;2023-03-01T05:55:18;13.68;;;5.40;;
10617;SDS011;5356;43.526;26.534;2023-03-01T05:57:45;10.23;;;5.60;;
10617;SDS011;5356;43.526;26.534;2023-03-01T06:00:11;11.50;;;6.40;;
10617;SDS011;5356;43.526;26.534;2023-03-01T06:02:39;12.73;;;5.60;;
10617;SDS011;5356;43.526;26.534;2023-03-01T06:05:06;10.93;;;6.82;;
10617;SDS011;5356;43.526;26.534;2023-03-01T06:07:32;10.95;;;6.03;;
10617;SDS011;5356;43.526;26.534;2023-03-01T06:09:58;16.35;;;7.07;;
10617;SDS011;5356;43.526;26.534;2023-03-01T06:12:24;13.30;;;6.78;;
10617;SDS011;5356;43.526;26.534;2023-03-01T06:14:49;14.93;;;8.13;;
10617;SDS011;5356;43.526;26.534;2023-03-01T06:17:15;14.85;;;6.25;;
10617;SDS011;5356;43.526;26.534;2023-03-01T06:19:40;31.48;;;9.32;;
10617;SDS011;5356;43.526;26.534;2023-03-01T06:22:06;30.30;;;9.23;;
10617;SDS011;5356;43.526;26.534;2023-03-01T06:24:32;22.27;;;7.70;;
10617;SDS011;5356;43.526;26.534;2023-03-01T06:26:58;14.82;;;7.20;;
10617;SDS011;5356;43.526;26.534;2023-03-01T06:29:23;14.77;;;7.05;;
10617;SDS011;5356;43.526;26.534;2023-03-01T06:31:49;11.20;;;5.53;;
10617;SDS011;5356;43.526;26.534;2023-03-01T06:34:14;11.77;;;5.63;;
10617;SDS011;5356;43.526;26.534;2023-03-01T06:36:40;14.55;;;5.90;;
10617;SDS011;5356;43.526;26.534;2023-03-01T06:39:06;11.80;;;5.43;;
10617;SDS011;5356;43.526;26.534;2023-03-01T06:41:32;13.88;;;6.88;;
10617;SDS011;5356;43.526;26.534;2023-03-01T06:43:58;13.32;;;6.90;;
10617;SDS011;5356;43.526;26.534;2023-03-01T06:46:24;15.68;;;8.48;;
10617;SDS011;5356;43.526;26.534;2023-03-01T06:48:49;15.30;;;7.80;;
10617;SDS011;5356;43.526;26.534;2023-03-01T06:51:15;15.02;;;6.80;;
10617;SDS011;5356;43.526;26.534;2023-03-01T06:53:40;13.25;;;6.32;;
10617;SDS011;5356;43.526;26.534;2023-03-01T06:56:06;13.30;;;6.40;;
10617;SDS011;5356;43.526;26.534;2023-03-01T06:58:31;12.30;;;7.20;;
10617;SDS011;5356;43.526;26.534;2023-03-01T07:00:57;14.57;;;7.32;;
10617;SDS011;5356;43.526;26.534;2023-03-01T07:03:23;16.50;;;6.82;;
10617;SDS011;5356;43.526;26.534;2023-03-01T07:05:49;18.15;;;8.07;;
10617;SDS011;5356;43.526;26.534;2023-03-01T07:08:17;13.80;;;7.10;;
10617;SDS011;5356;43.526;26.534;2023-03-01T07:10:43;13.38;;;7.40;;
10617;SDS011;5356;43.526;26.534;2023-03-01T07:13:09;13.68;;;6.72;;
10617;SDS011;5356;43.526;26.534;2023-03-01T07:15:35;13.32;;;6.80;;
10617;SDS011;5356;43.526;26.534;2023-03-01T07:18:01;14.00;;;7.82;;
10617;SDS011;5356;43.526;26.534;2023-03-01T07:20:27;14.18;;;6.93;;
10617;SDS011;5356;43.526;26.534;2023-03-01T07:22:53;16.02;;;7.97;;
10617;SDS011;5356;43.526;26.534;2023-03-01T07:25:20;19.00;;;8.85;;
10617;SDS011;5356;43.526;26.534;2023-03-01T07:27:52;14.80;;;7.70;;
10617;SDS011;5356;43.526;26.534;2023-03-01T07:30:18;14.20;;;7.07;;
10617;SDS011;5356;43.526;26.534;2023-03-01T07:32:44;14.70;;;7.45;;
10617;SDS011;5356;43.526;26.534;2023-03-01T07:35:10;15.27;;;7.10;;
10617;SDS011;5356;43.526;26.534;2023-03-01T07:37:36;15.70;;;8.25;;
10617;SDS011;5356;43.526;26.534;2023-03-01T07:40:01;17.00;;;7.40;;
10617;SDS011;5356;43.526;26.534;2023-03-01T07:42:27;12.13;;;7.13;;
10617;SDS011;5356;43.526;26.534;2023-03-01T07:44:53;11.65;;;6.65;;
10617;SDS011;5356;43.526;26.534;2023-03-01T07:47:18;15.00;;;7.10;;
10617;SDS011;5356;43.526;26.534;2023-03-01T07:49:43;15.30;;;7.85;;
10617;SDS011;5356;43.526;26.534;2023-03-01T07:52:10;13.70;;;6.43;;
10617;SDS011;5356;43.526;26.534;2023-03-01T07:54:36;17.60;;;7.50;;
10617;SDS011;5356;43.526;26.534;2023-03-01T07:57:02;14.52;;;6.75;;
10617;SDS011;5356;43.526;26.534;2023-03-01T07:59:28;15.27;;;6.60;;
10617;SDS011;5356;43.526;26.534;2023-03-01T08:01:54;10.98;;;6.38;;
10617;SDS011;5356;43.526;26.534;2023-03-01T08:04:20;13.25;;;6.68;;
10617;SDS011;5356;43.526;26.534;2023-03-01T08:06:46;12.70;;;7.57;;
10617;SDS011;5356;43.526;26.534;2023-03-01T08:09:11;12.13;;;5.82;;
10617;SDS011;5356;43.526;26.534;2023-03-01T08:11:36;14.98;;;7.25;;
10617;SDS011;5356;43.526;26.534;2023-03-01T08:14:02;15.98;;;6.50;;
10617;SDS011;5356;43.526;26.534;2023-03-01T08:16:28;13.32;;;6.78;;
10617;SDS011;5356;43.526;26.534;2023-03-01T08:18:53;14.57;;;7.22;;
10617;SDS011;5356;43.526;26.534;2023-03-01T08:21:21;11.07;;;5.72;;
10617;SDS011;5356;43.526;26.534;2023-03-01T08:23:47;13.77;;;7.13;;
10617;SDS011;5356;43.526;26.534;2023-03-01T08:26:16;14.70;;;7.38;;
10617;SDS011;5356;43.526;26.534;2023-03-01T08:28:44;18.00;;;8.77;;
10617;SDS011;5356;43.526;26.534;2023-03-01T08:33:44;20.23;;;9.77;;
10617;SDS011;5356;43.526;26.534;2023-03-01T08:36:15;15.77;;;8.32;;
10617;SDS011;5356;43.526;26.534;2023-03-01T08:38:41;14.52;;;6.65;;
10617;SDS011;5356;43.526;26.534;2023-03-01T08:41:07;14.70;;;6.95;;
10617;SDS011;5356;43.526;26.534;2023-03-01T08:43:32;13.90;;;7.40;;
10617;SDS011;5356;43.526;26.534;2023-03-01T08:45:58;17.40;;;8.18;;
10617;SDS011;5356;43.526;26.534;2023-03-01T08:48:23;16.08;;;6.53;;
10617;SDS011;5356;43.526;26.534;2023-03-01T08:50:49;20.50;;;9.32;;
10617;SDS011;5356;43.526;26.534;2023-03-01T08:53:14;22.27;;;10.35;;
10617;SDS011;5356;43.526;26.534;2023-03-01T08:55:40;19.00;;;10.55;;
10617;SDS011;5356;43.526;26.534;2023-03-01T08:58:05;19.55;;;9.38;;
10617;SDS011;5356;43.526;26.534;2023-03-01T09:00:31;18.88;;;10.20;;
10617;SDS011;5356;43.526;26.534;2023-03-01T09:03:00;16.30;;;8.07;;
10617;SDS011;5356;43.526;26.534;2023-03-01T09:05:25;13.65;;;7.68;;
10617;SDS011;5356;43.526;26.534;2023-03-01T09:07:51;15.60;;;7.85;;
10617;SDS011;5356;43.526;26.534;2023-03-01T09:10:16;14.23;;;8.15;;
10617;SDS011;5356;43.526;26.534;2023-03-01T09:12:42;17.58;;;8.43;;
10617;SDS011;5356;43.526;26.534;2023-03-01T09:15:08;15.00;;;8.35;;
10617;SDS011;5356;43.526;26.534;2023-03-01T09:17:33;18.50;;;8.77;;
10617;SDS011;5356;43.526;26.534;2023-03-01T09:19:59;13.05;;;7.95;;
10617;SDS011;5356;43.526;26.534;2023-03-01T09:22:25;16.85;;;8.35;;
10617;SDS011;5356;43.526;26.534;2023-03-01T09:24:50;14.55;;;9.13;;
10617;SDS011;5356;43.526;26.534;2023-03-01T09:27:16;16.27;;;6.70;;
10617;SDS011;5356;43.526;26.534;2023-03-01T09:29:43;13.43;;;7.38;;
10617;SDS011;5356;43.526;26.534;2023-03-01T09:32:09;13.77;;;7.45;;
10617;SDS011;5356;43.526;26.534;2023-03-01T09:34:35;18.10;;;8.18;;
10617;SDS011;5356;43.526;26.534;2023-03-01T09:37:21;13.85;;;7.53;;
10617;SDS011;5356;43.526;26.534;2023-03-01T09:39:47;18.38;;;8.45;;
10617;SDS011;5356;43.526;26.534;2023-03-01T09:42:12;13.52;;;7.50;;
10617;SDS011;5356;43.526;26.534;2023-03-01T09:47:28;16.38;;;7.80;;
10617;SDS011;5356;43.526;26.534;2023-03-01T09:50:04;15.68;;;7.93;;
10617;SDS011;5356;43.526;26.534;2023-03-01T09:52:46;19.70;;;8.02;;
10617;SDS011;5356;43.526;26.534;2023-03-01T09:55:28;16.23;;;7.53;;
10617;SDS011;5356;43.526;26.534;2023-03-01T10:08:36;14.55;;;7.70;;
10617;SDS011;5356;43.526;26.534;2023-03-01T10:16:55;13.27;;;7.93;;
10617;SDS011;5356;43.526;26.534;2023-03-01T10:19:32;12.70;;;6.87;;
10617;SDS011;5356;43.526;26.534;2023-03-01T10:22:10;13.13;;;7.63;;
10617;SDS011;5356;43.526;26.534;2023-03-01T10:24:41;18.00;;;7.75;;
10617;SDS011;5356;43.526;26.534;2023-03-01T10:27:09;14.13;;;8.02;;
10617;SDS011;5356;43.526;26.534;2023-03-01T10:29:49;17.42;;;8.30;;
10617;SDS011;5356;43.526;26.534;2023-03-01T10:32:18;16.73;;;7.78;;
10617;SDS011;5356;43.526;26.534;2023-03-01T10:34:47;17.45;;;8.43;;
10617;SDS011;5356;43.526;26.534;2023-03-01T10:37:14;14.90;;;6.68;;
10617;SDS011;5356;43.526;26.534;2023-03-01T10:44:55;18.45;;;7.35;;
10617;SDS011;5356;43.526;26.534;2023-03-01T10:47:24;17.35;;;7.30;;
10617;SDS011;5356;43.526;26.534;2023-03-01T10:49:54;18.17;;;8.07;;
10617;SDS011;5356;43.526;26.534;2023-03-01T10:52:31;15.60;;;6.95;;
10617;SDS011;5356;43.526;26.534;2023-03-01T10:54:59;14.43;;;7.68;;
10617;SDS011;5356;43.526;26.534;2023-03-01T10:57:37;14.65;;;7.68;;
10617;SDS011;5356;43.526;26.534;2023-03-01T11:00:16;14.68;;;7.63;;
10617;SDS011;5356;43.526;26.534;2023-03-01T11:05:23;16.38;;;6.82;;
10617;SDS011;5356;43.526;26.534;2023-03-01T11:07:59;17.33;;;7.97;;
10617;SDS011;5356;43.526;26.534;2023-03-01T11:10:30;16.08;;;6.68;;
10617;SDS011;5356;43.526;26.534;2023-03-01T11:13:17;12.75;;;6.40;;
10617;SDS011;5356;43.526;26.534;2023-03-01T11:16:04;17.42;;;7.20;;
10617;SDS011;5356;43.526;26.534;2023-03-01T11:18:32;18.48;;;6.93;;
10617;SDS011;5356;43.526;26.534;2023-03-01T11:20:58;15.95;;;8.20;;
10617;SDS011;5356;43.526;26.534;2023-03-01T11:23:27;13.85;;;7.45;;
10617;SDS011;5356;43.526;26.534;2023-03-01T11:25:55;18.52;;;8.23;;
10617;SDS011;5356;43.526;26.534;2023-03-01T11:28:21;14.73;;;7.38;;
10617;SDS011;5356;43.526;26.534;2023-03-01T11:39:03;13.60;;;6.68;;
10617;SDS011;5356;43.526;26.534;2023-03-01T11:41:43;17.00;;;7.45;;
10617;SDS011;5356;43.526;26.534;2023-03-01T11:44:21;14.30;;;6.97;;
10617;SDS011;5356;43.526;26.534;2023-03-01T11:47:08;14.13;;;6.03;;
10617;SDS011;5356;43.526;26.534;2023-03-01T11:55:08;11.38;;;6.57;;
